Time;durP1;ratioP1;P1;durP2;ratioP2;P2;SDS_P1;SDS_P2;PMS_P1;PMS_P2;Temp;Humidity;BMP_temperature;BMP_pressure;BME280_temperature;BME280_humidity;BME280_pressure;Samples;Min_cycle;Max_cycle;Signal;HPM_P1;HPM_P2
2022/05/11 04:25:10;;;;;;;1.65;1.55;;;20.30;99.90;;;;;;5922312;23;20686;-71
2022/05/11 04:27:37;;;;;;;7.90;1.40;;;20.30;99.90;;;;;;5022714;28;20304;-72
2022/05/11 04:30:06;;;;;;;7.32;1.40;;;20.30;99.90;;;;;;5014686;28;20208;-71
2022/05/11 04:32:33;;;;;;;4.10;1.85;;;20.30;99.90;;;;;;5014604;28;20255;-71
2022/05/11 04:35:00;;;;;;;2.53;2.28;;;20.30;99.90;;;;;;5014534;28;20217;-70
2022/05/11 04:37:27;;;;;;;3.30;2.75;;;20.30;99.90;;;;;;5014549;28;20201;-70
2022/05/11 04:39:54;;;;;;;3.33;3.15;;;20.30;99.90;;;;;;5014266;28;20201;-71
2022/05/11 04:42:23;;;;;;;3.75;3.45;;;20.20;99.90;;;;;;5013581;28;20296;-70
2022/05/11 04:44:50;;;;;;;8.00;3.63;;;20.20;99.90;;;;;;5013486;28;20218;-69
2022/05/11 04:47:17;;;;;;;5.63;3.53;;;20.10;99.90;;;;;;5014301;28;20201;-70
2022/05/11 04:49:44;;;;;;;5.78;3.67;;;20.10;99.90;;;;;;5014596;28;20236;-70
2022/05/11 04:52:13;;;;;;;10.85;3.55;;;20.10;99.90;;;;;;5014470;28;20205;-71
2022/05/11 04:54:41;;;;;;;13.40;3.10;;;20.10;99.90;;;;;;5013977;28;20615;-70
2022/05/11 04:57:10;;;;;;;28.98;3.78;;;20.20;99.90;;;;;;5013937;28;20698;-71
2022/05/11 04:59:40;;;;;;;45.83;4.03;;;20.20;99.90;;;;;;5014737;28;20227;-72
2022/05/11 05:02:08;;;;;;;17.33;2.38;;;20.30;99.90;;;;;;5014247;28;20206;-73
2022/05/11 05:04:35;;;;;;;11.55;1.67;;;20.20;99.90;;;;;;5013643;28;20727;-75
2022/05/11 05:07:01;;;;;;;10.10;1.50;;;20.20;99.90;;;;;;5013657;28;20240;-74
2022/05/11 05:09:28;;;;;;;0.90;0.82;;;20.10;99.90;;;;;;5013421;28;20289;-72
2022/05/11 05:11:55;;;;;;;2.53;0.50;;;20.20;99.90;;;;;;5013567;28;20197;-74
2022/05/11 05:14:22;;;;;;;1.08;0.40;;;20.10;99.90;;;;;;5013805;28;20213;-75
2022/05/11 05:16:50;;;;;;;1.10;0.35;;;20.10;99.90;;;;;;5014162;28;20205;-74
2022/05/11 05:19:17;;;;;;;7.13;0.90;;;20.10;99.90;;;;;;5014045;28;20244;-76
2022/05/11 05:21:44;;;;;;;3.65;0.63;;;20.20;99.90;;;;;;5014059;28;20368;-75
2022/05/11 05:24:11;;;;;;;5.13;0.60;;;20.20;99.90;;;;;;5014023;28;20292;-73
2022/05/11 05:26:38;;;;;;;4.78;1.20;;;20.20;99.90;;;;;;5013824;28;20292;-73
2022/05/11 05:31:51;;;;;;;4.90;1.38;;;20.20;99.90;;;;;;5013702;28;20304;-72
2022/05/11 05:34:17;;;;;;;3.83;1.38;;;20.20;99.90;;;;;;5013791;28;20228;-73
2022/05/11 05:36:44;;;;;;;7.72;2.13;;;20.20;99.90;;;;;;5013520;28;20197;-73
2022/05/11 05:39:11;;;;;;;3.80;0.85;;;20.20;99.90;;;;;;5013419;28;20608;-73
2022/05/11 05:41:38;;;;;;;6.43;1.00;;;20.20;99.90;;;;;;5013765;28;20292;-75
2022/05/11 09:06:07;;;;;;;3.05;0.60;;;20.40;99.90;;;;;;5804491;23;20273;-74
2022/05/11 09:08:37;;;;;;;0.70;0.70;;;20.40;99.90;;;;;;5013944;28;20201;-74
2022/05/11 09:11:05;;;;;;;0.63;0.60;;;20.40;99.90;;;;;;5014143;28;20203;-75
2022/05/11 09:13:32;;;;;;;0.70;0.70;;;20.40;99.90;;;;;;5014129;28;20214;-75
2022/05/11 09:16:01;;;;;;;0.60;0.60;;;20.40;99.90;;;;;;5014030;28;20298;-75
2022/05/11 09:18:39;;;;;;;0.60;0.60;;;20.40;99.90;;;;;;5014499;28;20304;-74
2022/05/11 09:21:19;;;;;;;0.73;0.73;;;20.40;99.90;;;;;;5014056;28;20186;-73
2022/05/11 09:23:57;;;;;;;0.70;0.60;;;20.40;99.90;;;;;;5014055;28;20192;-73
2022/05/11 09:26:32;;;;;;;0.63;0.55;;;20.40;99.90;;;;;;5013924;28;20221;-73
2022/05/11 09:29:16;;;;;;;0.63;0.63;;;20.40;99.90;;;;;;5013969;28;20209;-75
2022/05/11 09:31:44;;;;;;;0.80;0.80;;;20.40;99.90;;;;;;5013615;28;20633;-74
2022/05/11 09:34:14;;;;;;;1.83;0.73;;;20.40;99.90;;;;;;5013885;28;20208;-73
2022/05/11 09:36:54;;;;;;;0.90;0.82;;;20.40;99.90;;;;;;5013792;28;20225;-73
2022/05/11 09:39:21;;;;;;;0.73;0.70;;;20.40;99.90;;;;;;5013793;28;20209;-73
2022/05/11 09:41:51;;;;;;;0.68;0.68;;;20.40;99.90;;;;;;5013772;28;20300;-73
2022/05/11 09:44:21;;;;;;;0.50;0.50;;;20.40;99.90;;;;;;5013995;28;20197;-73
2022/05/11 09:46:48;;;;;;;1.55;0.68;;;20.40;99.90;;;;;;5013648;28;20308;-73
2022/05/11 09:49:27;;;;;;;1.00;0.80;;;20.40;99.90;;;;;;5013719;28;20225;-73
2022/05/11 09:51:58;;;;;;;0.60;0.60;;;20.40;99.90;;;;;;5014025;28;20331;-73
2022/05/11 09:54:33;;;;;;;0.73;0.68;;;20.40;99.90;;;;;;5013532;28;20237;-74
2022/05/11 09:57:04;;;;;;;0.60;0.60;;;20.40;99.90;;;;;;5013638;28;20248;-74
2022/05/11 09:59:34;;;;;;;12.10;1.05;;;20.40;99.90;;;;;;5013663;28;20216;-73
2022/05/11 10:02:18;;;;;;;10.85;0.80;;;20.40;99.90;;;;;;5013622;28;20193;-73
2022/05/11 10:04:51;;;;;;;3.85;0.75;;;20.40;99.90;;;;;;5013695;28;20197;-73
2022/05/11 10:07:20;;;;;;;4.78;0.50;;;20.40;99.90;;;;;;5013273;28;20600;-74
2022/05/11 10:09:54;;;;;;;0.65;0.40;;;20.40;99.90;;;;;;5014486;28;20226;-73
2022/05/11 10:12:27;;;;;;;0.63;0.28;;;20.40;99.90;;;;;;5018092;28;20271;-72
2022/05/11 10:23:27;;;;;;;1.67;1.52;;;20.50;99.90;;;;;;5017005;28;20208;-73
2022/05/11 10:25:58;;;;;;;5.07;2.10;;;20.50;99.90;;;;;;5017030;28;20233;-73
2022/05/11 10:28:37;;;;;;;7.43;3.40;;;20.50;99.90;;;;;;5017044;28;20285;-74
2022/05/11 10:31:12;;;;;;;8.55;3.58;;;20.50;99.90;;;;;;5017013;28;20186;-73
2022/05/11 10:33:59;;;;;;;7.68;2.22;;;20.50;99.90;;;;;;5016897;28;20194;-73
2022/05/11 10:36:34;;;;;;;5.43;2.45;;;20.50;99.90;;;;;;5016673;28;20227;-73
2022/05/11 10:39:18;;;;;;;4.28;2.17;;;20.50;99.90;;;;;;5016678;28;20220;-73
2022/05/11 10:41:51;;;;;;;4.22;1.80;;;20.50;99.90;;;;;;5016751;28;20192;-74
2022/05/11 10:44:35;;;;;;;4.15;1.80;;;20.50;99.90;;;;;;5016767;28;20190;-75
2022/05/11 10:47:14;;;;;;;3.63;1.67;;;20.50;99.90;;;;;;5016645;28;20264;-75
2022/05/11 10:49:55;;;;;;;6.00;1.83;;;20.50;99.90;;;;;;5016663;28;20576;-74
2022/05/11 10:52:38;;;;;;;3.10;1.60;;;20.50;99.90;;;;;;5017179;28;20277;-76
2022/05/11 10:55:23;;;;;;;6.97;1.70;;;20.60;99.90;;;;;;5016696;28;20190;-75
2022/05/11 10:58:02;;;;;;;7.63;2.38;;;20.60;99.90;;;;;;5016616;28;20190;-76
2022/05/11 11:00:34;;;;;;;10.80;2.22;;;20.60;99.90;;;;;;5016414;28;20209;-75
2022/05/11 11:03:33;;;;;;;3.25;1.83;;;20.60;99.90;;;;;;5016459;28;20259;-75
2022/05/11 11:09:07;;;;;;;1.83;1.33;;;20.70;99.90;;;;;;5017882;28;20239;-75
2022/05/11 11:11:42;;;;;;;1.30;1.00;;;20.70;99.90;;;;;;5016975;28;20721;-75
2022/05/11 11:14:11;;;;;;;1.58;1.17;;;20.80;99.90;;;;;;5016491;28;20189;-75
2022/05/11 11:16:41;;;;;;;5.45;1.42;;;20.80;99.90;;;;;;5016723;28;20245;-75
2022/05/11 11:19:10;;;;;;;3.45;0.90;;;20.80;99.90;;;;;;5017109;28;20220;-76
2022/05/11 11:21:40;;;;;;;4.43;1.10;;;20.80;99.90;;;;;;5017206;28;20691;-76
2022/05/11 11:24:22;;;;;;;5.63;1.00;;;20.80;99.90;;;;;;5017282;28;20272;-75
2022/05/11 11:26:58;;;;;;;1.38;0.80;;;20.80;99.90;;;;;;5023472;28;20307;-75
2022/05/11 11:29:29;;;;;;;1.85;0.65;;;20.80;99.90;;;;;;5024039;28;20188;-75
2022/05/11 11:32:13;;;;;;;1.70;0.80;;;20.80;99.90;;;;;;5023533;28;20252;-73
2022/05/11 11:34:41;;;;;;;0.40;0.40;;;;;;;;;;5024545;28;20190;-79
2022/05/11 11:37:27;;;;;;;5.68;0.95;;;;;;;;;;5024803;28;20442;-80
2022/05/11 11:39:57;;;;;;;3.00;0.77;;;21.70;99.90;;;;;;5025373;28;20268;-79
2022/05/11 11:42:35;;;;;;;1.95;1.40;;;21.30;99.90;;;;;;5025475;28;20209;-80
2022/05/11 11:45:05;;;;;;;1.98;1.70;;;21.00;99.90;;;;;;5025643;28;20193;-76
2022/05/11 11:47:43;;;;;;;12.82;2.80;;;20.90;99.90;;;;;;5026652;28;20221;-81
2022/05/11 11:50:45;;;;;;;6.45;1.80;;;20.80;99.90;;;;;;5025268;28;20192;-77
2022/05/11 11:53:21;;;;;;;6.30;1.88;;;20.70;99.90;;;;;;5019304;28;20216;-79
2022/05/11 11:55:50;;;;;;;5.32;1.85;;;20.70;99.90;;;;;;5018720;28;20692;-78
2022/05/11 11:58:22;;;;;;;2.95;2.00;;;;;;;;;;5018080;28;20665;-78
2022/05/11 12:01:07;;;;;;;2.33;1.70;;;20.80;99.90;;;;;;5017812;28;20216;-76
2022/05/11 12:03:37;;;;;;;4.03;1.58;;;20.80;99.90;;;;;;5016429;28;20186;-77
2022/05/11 12:17:28;;;;;;;7.78;1.80;;;20.80;99.90;;;;;;5017104;28;20221;-76
2022/05/11 12:20:01;;;;;;;2.88;1.63;;;20.80;99.90;;;;;;5016949;28;20221;-77
2022/05/11 12:22:29;;;;;;;5.88;1.85;;;20.80;99.90;;;;;;5016217;28;20259;-77
2022/05/11 12:25:02;;;;;;;3.67;1.65;;;20.80;99.90;;;;;;5015318;28;20205;-77
2022/05/11 12:27:33;;;;;;;3.70;1.60;;;20.80;99.90;;;;;;5015187;28;20244;-77
2022/05/11 12:30:04;;;;;;;2.58;1.48;;;20.80;99.90;;;;;;5015239;28;20266;-78
2022/05/11 12:32:34;;;;;;;2.10;1.50;;;20.80;99.90;;;;;;5015160;28;20732;-77
2022/05/11 12:35:10;;;;;;;3.28;1.80;;;20.80;99.90;;;;;;5024541;28;20221;-77
2022/05/11 12:37:39;;;;;;;4.78;1.73;;;20.80;99.90;;;;;;5024171;28;20229;-76
2022/05/11 12:40:09;;;;;;;1.40;1.30;;;20.90;99.90;;;;;;5024080;28;20281;-76
2022/05/11 12:42:40;;;;;;;3.78;1.52;;;20.90;99.90;;;;;;5023946;28;20201;-76
2022/05/11 12:45:11;;;;;;;2.33;1.42;;;20.90;99.90;;;;;;5023412;28;20622;-76
2022/05/11 12:47:44;;;;;;;2.28;1.65;;;20.90;99.90;;;;;;5023479;28;20232;-75
2022/05/11 12:50:19;;;;;;;2.13;1.60;;;20.90;99.90;;;;;;5024659;28;20193;-76
2022/05/11 12:52:47;;;;;;;2.30;1.23;;;20.90;99.90;;;;;;5023964;28;20213;-76
2022/05/11 12:55:14;;;;;;;3.67;1.40;;;20.90;99.90;;;;;;5023360;28;20197;-76
2022/05/11 12:57:44;;;;;;;2.40;1.50;;;21.00;99.90;;;;;;5023434;28;20227;-76
2022/05/11 13:00:18;;;;;;;2.40;1.75;;;21.00;99.90;;;;;;5024818;28;20205;-77
2022/05/11 13:02:45;;;;;;;1.40;1.30;;;21.00;99.90;;;;;;5023702;28;20548;-78
2022/05/11 13:05:18;;;;;;;1.85;1.55;;;21.00;99.90;;;;;;5022859;28;20216;-78
2022/05/11 13:07:50;;;;;;;7.07;1.48;;;21.00;99.90;;;;;;5024995;28;20211;-77
2022/05/11 13:10:22;;;;;;;1.63;1.45;;;21.10;99.90;;;;;;5023912;28;20532;-77
2022/05/11 13:12:53;;;;;;;1.27;1.17;;;21.10;99.90;;;;;;5023037;28;20182;-77
2022/05/11 13:15:40;;;;;;;3.75;1.33;;;21.10;99.90;;;;;;5024107;28;20225;-76
2022/05/11 13:18:10;;;;;;;6.45;1.73;;;21.10;99.90;;;;;;5020961;28;20185;-76
2022/05/11 13:20:41;;;;;;;1.55;1.45;;;21.10;99.90;;;;;;5015112;28;20221;-84
2022/05/11 13:23:20;;;;;;;1.83;1.25;;;21.20;99.90;;;;;;5022088;28;20272;-83
2022/05/11 13:25:49;;;;;;;2.38;1.40;;;;;;;;;;5016701;28;20228;-83
2022/05/11 13:28:23;;;;;;;1.60;1.50;;;21.20;99.90;;;;;;5016699;28;20229;-83
2022/05/11 13:30:53;;;;;;;4.00;1.63;;;21.30;99.90;;;;;;5021447;28;20264;-83
2022/05/11 13:33:34;;;;;;;1.38;1.38;;;21.30;99.90;;;;;;5021424;28;20209;-83
2022/05/11 13:36:10;;;;;;;1.50;1.40;;;21.30;99.90;;;;;;5017512;28;20304;-83
2022/05/11 13:38:37;;;;;;;3.88;1.40;;;21.30;99.90;;;;;;5017111;28;20268;-83
2022/05/11 13:41:05;;;;;;;4.78;1.55;;;21.30;99.90;;;;;;5021469;28;20316;-83
2022/05/11 13:43:35;;;;;;;3.15;1.65;;;21.40;99.90;;;;;;5021750;28;20303;-83
2022/05/11 13:46:06;;;;;;;2.13;1.50;;;21.40;99.90;;;;;;5022335;28;20312;-83
2022/05/11 13:48:35;;;;;;;1.77;1.40;;;21.40;99.90;;;;;;5020749;28;20284;-83
2022/05/11 13:51:15;;;;;;;2.30;1.67;;;21.40;99.90;;;;;;5020654;28;20672;-83
2022/05/11 13:53:43;;;;;;;1.40;1.30;;;21.40;99.90;;;;;;5022252;28;20177;-84
2022/05/11 13:56:21;;;;;;;2.38;1.40;;;21.40;99.90;;;;;;5022638;28;20218;-83
2022/05/11 13:58:51;;;;;;;2.17;1.10;;;21.40;99.90;;;;;;5022805;28;20557;-83
2022/05/11 14:01:22;;;;;;;2.63;1.30;;;21.40;99.90;;;;;;5020154;28;20248;-83
2022/05/11 14:03:50;;;;;;;1.80;1.70;;;21.40;99.90;;;;;;5019666;28;20224;-83
2022/05/11 14:06:19;;;;;;;1.27;1.17;;;21.40;99.90;;;;;;5019502;28;20312;-83
2022/05/11 14:08:46;;;;;;;1.50;1.50;;;21.40;99.90;;;;;;5019205;28;20728;-84
2022/05/11 14:11:14;;;;;;;2.00;1.40;;;21.40;99.90;;;;;;5019623;28;20220;-84
2022/05/11 14:13:41;;;;;;;3.33;1.08;;;21.40;99.90;;;;;;5019320;28;20208;-84
2022/05/11 14:16:10;;;;;;;2.30;1.60;;;21.30;99.90;;;;;;5019229;28;20307;-84
2022/05/11 14:18:42;;;;;;;1.35;1.25;;;21.30;99.90;;;;;;5019033;28;20570;-84
2022/05/11 14:21:09;;;;;;;4.30;1.30;;;21.30;99.90;;;;;;5018844;28;20210;-83
2022/05/11 14:23:36;;;;;;;1.95;1.17;;;21.30;99.90;;;;;;5018561;28;20197;-83
2022/05/11 14:26:04;;;;;;;1.80;1.38;;;21.30;99.90;;;;;;5018018;28;20229;-83
2022/05/11 14:28:31;;;;;;;2.75;1.20;;;21.20;99.90;;;;;;5018163;28;20642;-84
2022/05/11 14:30:58;;;;;;;1.83;1.40;;;21.20;99.90;;;;;;5018881;28;20225;-78
2022/05/11 14:33:25;;;;;;;1.10;1.10;;;21.20;99.90;;;;;;5017267;28;20201;-79
2022/05/11 14:35:54;;;;;;;1.88;1.20;;;21.20;99.90;;;;;;5017259;28;20221;-78
2022/05/11 14:38:21;;;;;;;1.30;1.20;;;21.20;99.90;;;;;;5017351;28;20244;-79
2022/05/11 14:40:49;;;;;;;2.97;1.70;;;21.20;99.90;;;;;;5016693;28;20306;-79
2022/05/11 14:43:17;;;;;;;0.95;0.95;;;21.20;99.90;;;;;;5017229;28;20284;-79
2022/05/11 14:45:48;;;;;;;1.75;1.20;;;21.20;99.90;;;;;;5016982;28;20221;-79
2022/05/11 14:48:21;;;;;;;1.65;1.20;;;21.20;99.90;;;;;;5016776;28;20200;-77
2022/05/11 14:50:48;;;;;;;2.08;1.50;;;21.20;99.90;;;;;;5016448;28;20641;-77
2022/05/11 14:53:17;;;;;;;1.52;1.42;;;21.10;99.90;;;;;;5016671;28;20237;-77
2022/05/11 14:55:43;;;;;;;4.18;1.50;;;21.10;99.90;;;;;;5015775;28;20261;-77
2022/05/11 15:03:39;;;;;;;1.42;1.30;;;21.10;99.90;;;;;;5016493;28;20185;-77
2022/05/11 15:06:06;;;;;;;1.23;1.20;;;21.10;99.90;;;;;;5022423;28;20221;-77
2022/05/11 15:08:35;;;;;;;1.90;1.20;;;21.10;99.90;;;;;;5028939;28;20209;-76
2022/05/11 15:13:47;;;;;;;1.10;1.10;;;21.00;99.90;;;;;;5027444;28;20208;-76
2022/05/11 15:16:15;;;;;;;2.65;1.55;;;21.00;99.90;;;;;;5027439;28;20256;-75
2022/05/11 15:18:42;;;;;;;2.15;1.30;;;21.00;99.90;;;;;;5028004;28;20220;-77
2022/05/11 15:21:10;;;;;;;5.03;1.45;;;21.00;99.90;;;;;;5028664;28;20206;-77
2022/05/11 15:23:39;;;;;;;8.13;1.65;;;21.00;99.90;;;;;;5025842;28;20204;-78
2022/05/11 15:26:06;;;;;;;1.73;1.13;;;21.00;99.90;;;;;;5026071;28;20229;-78
2022/05/11 15:28:34;;;;;;;1.20;1.10;;;21.00;99.90;;;;;;5026956;28;20216;-77
2022/05/11 15:31:01;;;;;;;2.20;0.90;;;20.90;99.90;;;;;;5026637;28;20216;-76
2022/05/11 15:33:28;;;;;;;2.85;0.90;;;20.90;99.90;;;;;;5027559;28;20182;-78
2022/05/11 15:35:58;;;;;;;0.60;0.60;;;20.90;99.90;;;;;;5026041;28;20747;-78
2022/05/11 15:38:26;;;;;;;3.80;0.82;;;20.90;99.90;;;;;;5026865;28;20259;-78
2022/05/11 15:40:55;;;;;;;6.35;0.95;;;20.90;99.90;;;;;;5024806;28;20312;-78
2022/05/11 15:43:23;;;;;;;0.90;0.47;;;20.90;99.90;;;;;;5026651;28;20252;-78
2022/05/11 15:45:51;;;;;;;2.22;0.63;;;20.90;99.90;;;;;;5025976;28;20217;-78
2022/05/11 15:48:23;;;;;;;0.60;0.60;;;20.90;99.90;;;;;;5025116;28;20296;-78
2022/05/11 15:50:50;;;;;;;1.08;0.50;;;20.90;99.90;;;;;;5022322;28;20284;-77
2022/05/11 15:53:23;;;;;;;0.35;0.35;;;20.90;99.90;;;;;;5018513;28;20244;-78
2022/05/11 15:55:51;;;;;;;0.50;0.50;;;20.90;99.90;;;;;;5017015;28;20707;-78
2022/05/11 15:58:19;;;;;;;0.30;0.30;;;20.90;99.90;;;;;;5016835;28;20217;-78
2022/05/11 16:00:48;;;;;;;1.75;0.57;;;20.90;99.90;;;;;;5016493;28;20271;-78
2022/05/11 16:03:17;;;;;;;0.47;0.30;;;20.90;99.90;;;;;;5016371;28;20680;-78
2022/05/11 16:05:44;;;;;;;0.32;0.32;;;20.90;99.90;;;;;;5016861;28;20228;-78
2022/05/11 16:08:11;;;;;;;0.57;0.30;;;20.90;99.90;;;;;;5015494;28;20213;-79
2022/05/11 16:10:38;;;;;;;0.57;0.35;;;20.90;99.90;;;;;;5018318;28;20292;-79
2022/05/11 16:13:06;;;;;;;3.40;0.35;;;20.80;99.90;;;;;;5019125;28;20212;-79
2022/05/11 16:15:34;;;;;;;0.40;0.40;;;20.80;99.90;;;;;;5018772;28;20221;-79
2022/05/11 16:20:46;;;;;;;0.45;0.30;;;20.80;99.90;;;;;;5018455;28;20570;-78
2022/05/11 16:23:13;;;;;;;0.30;0.30;;;20.80;99.90;;;;;;5017904;28;20201;-78
2022/05/11 16:25:40;;;;;;;0.30;0.30;;;20.80;99.90;;;;;;5018550;28;20226;-78
2022/05/11 16:28:08;;;;;;;0.30;0.30;;;20.80;99.90;;;;;;5018077;28;20629;-78
2022/05/11 16:30:37;;;;;;;0.30;0.30;;;20.80;99.90;;;;;;5017208;28;20569;-78
2022/05/11 16:33:04;;;;;;;0.38;0.38;;;20.80;99.90;;;;;;5016794;28;20292;-78
2022/05/11 16:35:31;;;;;;;1.45;0.30;;;20.80;99.90;;;;;;5016713;28;20205;-78
2022/05/11 16:37:58;;;;;;;0.20;0.20;;;20.80;99.90;;;;;;5017002;28;20212;-78
2022/05/11 16:40:26;;;;;;;0.20;0.20;;;20.80;99.90;;;;;;5017879;28;20264;-78
2022/05/11 16:42:52;;;;;;;0.20;0.20;;;20.80;99.90;;;;;;5017963;28;20284;-78
2022/05/11 16:45:19;;;;;;;0.20;0.20;;;20.80;99.90;;;;;;5016813;28;20216;-78
2022/05/11 16:47:47;;;;;;;0.30;0.30;;;20.80;99.90;;;;;;5017353;28;20229;-79
2022/05/11 16:50:14;;;;;;;1.38;0.70;;;20.80;99.90;;;;;;5022661;28;20212;-77
2022/05/11 16:52:41;;;;;;;0.80;0.70;;;20.80;99.90;;;;;;5015545;28;20280;-76
2022/05/11 16:55:10;;;;;;;15.77;1.17;;;20.80;99.90;;;;;;5014788;28;20205;-77
2022/05/11 16:57:38;;;;;;;3.72;1.10;;;20.80;99.90;;;;;;5014486;28;20736;-77
2022/05/11 17:00:06;;;;;;;3.05;1.00;;;20.80;99.90;;;;;;5014397;28;20600;-77
2022/05/11 17:02:33;;;;;;;9.43;1.27;;;20.80;99.90;;;;;;5014456;28;20549;-77
2022/05/11 17:05:02;;;;;;;16.52;1.63;;;20.80;99.90;;;;;;5015284;28;20208;-78
2022/05/11 17:07:30;;;;;;;10.00;1.17;;;20.80;99.90;;;;;;5019644;28;20233;-78
2022/05/11 17:09:57;;;;;;;8.82;1.45;;;20.80;99.90;;;;;;5015718;28;20220;-78
2022/05/11 17:12:24;;;;;;;3.75;0.88;;;20.80;99.90;;;;;;5016356;28;20220;-76
2022/05/11 17:14:50;;;;;;;3.38;0.80;;;20.80;99.90;;;;;;5015707;28;20208;-78
2022/05/11 17:17:17;;;;;;;6.60;1.20;;;20.80;99.90;;;;;;5014801;28;20221;-76
2022/05/11 17:19:44;;;;;;;6.38;0.90;;;20.80;99.90;;;;;;5014305;28;20212;-77
2022/05/11 17:22:17;;;;;;;1.85;0.70;;;20.80;99.90;;;;;;5014419;28;20651;-78
2022/05/11 17:24:44;;;;;;;5.88;1.00;;;20.80;99.90;;;;;;5016594;28;20633;-78
2022/05/11 17:27:11;;;;;;;1.90;0.80;;;20.80;99.90;;;;;;5016661;28;20221;-80
2022/05/11 17:29:39;;;;;;;4.90;0.70;;;20.80;99.90;;;;;;5037034;28;20843;-80
2022/05/11 17:32:08;;;;;;;2.75;0.70;;;20.80;99.90;;;;;;5038471;28;20264;-80
2022/05/11 17:34:35;;;;;;;1.20;0.80;;;20.80;99.90;;;;;;5039002;28;20208;-80
2022/05/11 17:37:02;;;;;;;4.28;0.70;;;20.80;99.90;;;;;;5037092;28;20217;-84
2022/05/11 17:39:30;;;;;;;1.45;0.60;;;20.80;99.90;;;;;;5036265;28;20545;-80
2022/05/11 17:41:57;;;;;;;1.50;0.50;;;20.70;99.90;;;;;;5036448;28;20315;-80
2022/05/11 17:44:25;;;;;;;0.25;0.25;;;20.70;99.90;;;;;;5037392;28;20204;-78
2022/05/11 17:46:52;;;;;;;0.20;0.20;;;20.70;99.90;;;;;;5035462;28;20262;-78
2022/05/11 17:49:19;;;;;;;0.20;0.20;;;20.70;99.90;;;;;;5033943;28;20611;-77
2022/05/11 17:51:46;;;;;;;1.10;0.20;;;20.70;99.90;;;;;;5033713;28;20197;-77
2022/05/11 17:54:13;;;;;;;0.20;0.10;;;20.60;99.90;;;;;;5033552;28;20295;-77
2022/05/11 17:56:41;;;;;;;0.20;0.10;;;20.60;99.90;;;;;;5033569;28;20221;-77
2022/05/11 17:59:08;;;;;;;0.10;0.10;;;20.60;99.90;;;;;;5033662;28;20639;-77
2022/05/11 18:01:36;;;;;;;0.30;0.30;;;20.60;99.90;;;;;;5033391;28;20303;-77
2022/05/11 18:04:03;;;;;;;0.10;0.10;;;20.60;99.90;;;;;;5033862;28;20571;-77
2022/05/11 18:06:30;;;;;;;0.10;0.10;;;20.60;99.90;;;;;;5035312;28;20226;-80
2022/05/11 18:08:57;;;;;;;0.10;0.10;;;20.60;99.90;;;;;;5034740;28;20258;-80
2022/05/11 18:11:24;;;;;;;0.10;0.10;;;20.60;99.90;;;;;;5035206;28;20196;-81
2022/05/11 18:13:52;;;;;;;0.10;0.10;;;20.60;99.90;;;;;;5035016;28;20197;-79
2022/05/11 18:16:19;;;;;;;0.10;0.10;;;20.60;99.90;;;;;;5034366;28;20225;-80
2022/05/11 18:18:46;;;;;;;0.10;0.10;;;20.60;99.90;;;;;;5034338;28;20225;-80
2022/05/11 18:21:17;;;;;;;0.10;0.10;;;20.60;99.90;;;;;;5038227;28;20257;-81
2022/05/11 18:23:44;;;;;;;0.10;0.10;;;20.60;99.90;;;;;;5039419;28;20185;-78
2022/05/11 18:26:11;;;;;;;0.30;0.30;;;20.60;99.90;;;;;;5034297;28;20316;-79
2022/05/11 18:28:38;;;;;;;15.55;0.70;;;20.60;99.90;;;;;;5034783;28;20208;-78
2022/05/11 18:31:06;;;;;;;30.00;1.73;;;20.70;99.90;;;;;;5036329;28;20225;-78
2022/05/11 18:33:33;;;;;;;20.83;2.55;;;20.80;99.90;;;;;;5037565;28;20205;-78
2022/05/11 18:36:01;;;;;;;24.70;1.40;;;20.90;99.90;;;;;;5039239;28;20263;-79
2022/05/11 18:38:28;;;;;;;26.40;1.92;;;20.90;99.90;;;;;;5037786;28;20205;-79
2022/05/11 18:40:56;;;;;;;16.50;1.83;;;21.00;99.90;;;;;;5038084;28;20203;-79
2022/05/11 18:43:23;;;;;;;17.63;1.63;;;20.90;99.90;;;;;;5037995;28;20648;-79
2022/05/11 18:45:52;;;;;;;19.30;1.50;;;20.90;99.90;;;;;;5038174;28;20227;-79
2022/05/11 18:48:20;;;;;;;10.63;2.10;;;20.90;99.90;;;;;;5038467;28;20295;-79
2022/05/11 18:50:47;;;;;;;10.93;1.73;;;20.80;99.90;;;;;;5038070;28;20680;-79
2022/05/11 18:53:13;;;;;;;9.65;1.50;;;20.80;99.90;;;;;;5040562;28;20296;-79
2022/05/11 18:55:40;;;;;;;10.40;1.48;;;20.80;99.90;;;;;;5040356;28;20255;-76
2022/05/11 18:58:07;;;;;;;18.38;1.55;;;20.80;99.90;;;;;;5037526;28;20308;-77
2022/05/11 19:00:36;;;;;;;12.93;2.13;;;20.80;99.90;;;;;;5036544;28;20690;-77
2022/05/11 19:03:04;;;;;;;16.30;2.13;;;20.80;99.90;;;;;;5036278;28;20307;-77
2022/05/11 19:05:33;;;;;;;7.32;2.10;;;20.70;99.90;;;;;;5036338;28;20287;-78
2022/05/11 19:08:02;;;;;;;16.02;2.25;;;20.80;99.90;;;;;;5036246;28;20247;-78
2022/05/11 19:10:29;;;;;;;8.40;1.80;;;20.80;99.90;;;;;;5035941;28;20236;-78
2022/05/11 19:12:56;;;;;;;8.55;2.45;;;20.80;99.90;;;;;;5036167;28;20225;-77
2022/05/11 19:15:24;;;;;;;8.80;1.63;;;20.80;99.90;;;;;;5035926;28;20228;-78
2022/05/11 19:17:52;;;;;;;6.30;2.50;;;20.80;99.90;;;;;;5035848;28;20251;-78
2022/05/11 19:20:21;;;;;;;8.70;1.60;;;20.80;99.90;;;;;;5035720;28;20201;-78
2022/05/11 19:22:50;;;;;;;6.43;1.75;;;20.80;99.90;;;;;;5035761;28;20730;-77
2022/05/11 19:25:17;;;;;;;7.60;1.80;;;20.80;99.90;;;;;;5035532;28;20287;-77
2022/05/11 19:27:46;;;;;;;8.93;1.67;;;20.80;99.90;;;;;;5035771;28;20321;-77
2022/05/11 19:30:15;;;;;;;6.10;2.33;;;20.80;99.90;;;;;;5035890;28;20212;-78
2022/05/11 19:32:42;;;;;;;6.32;1.85;;;20.80;99.90;;;;;;5035678;28;20228;-77
2022/05/11 19:35:10;;;;;;;9.60;2.35;;;20.80;99.90;;;;;;5036031;28;20232;-77
2022/05/11 19:37:38;;;;;;;9.85;2.53;;;20.80;99.90;;;;;;5035944;28;20224;-77
2022/05/11 19:40:10;;;;;;;7.82;1.92;;;20.80;99.90;;;;;;5035606;28;20228;-76
2022/05/11 19:42:37;;;;;;;12.75;2.45;;;20.80;99.90;;;;;;5035197;28;20215;-76
2022/05/11 19:45:05;;;;;;;4.28;2.00;;;20.80;99.90;;;;;;5035504;28;20232;-76
2022/05/11 19:47:32;;;;;;;3.95;2.38;;;20.80;99.90;;;;;;5035329;28;20221;-77
2022/05/11 19:50:02;;;;;;;5.28;2.08;;;20.80;99.90;;;;;;5036717;28;20215;-77
